Time;durP1;ratioP1;P1;durP2;ratioP2;P2;SDS_P1;SDS_P2;PMS_P1;PMS_P2;Temp;Humidity;BMP_temperature;BMP_pressure;BME280_temperature;BME280_humidity;BME280_pressure;Samples;Min_cycle;Max_cycle;Signal;HPM_P1;HPM_P2
2023/01/18 04:19:16;;;;;;;38.50;9.30;;;;;;;10.21;90.60;100430.55;105078;1295;24372;-50
2023/01/18 04:21:43;;;;;;;23.00;8.40;;;;;;;10.31;89.53;100426.31;105809;1288;25241;-49
2023/01/18 04:24:10;;;;;;;36.80;9.00;;;;;;;10.39;88.79;100425.91;104458;1284;1016337;-50
2023/01/18 04:26:37;;;;;;;32.70;9.20;;;;;;;10.48;88.32;100424.29;106010;1281;139403;-50
2023/01/18 04:29:04;;;;;;;28.00;8.60;;;;;;;10.56;87.79;100426.69;106386;1279;25336;-49
2023/01/18 04:31:31;;;;;;;29.90;9.30;;;;;;;10.62;87.30;100424.59;106259;1283;25489;-49
2023/01/18 04:34:01;;;;;;;35.30;8.20;;;;;;;10.70;86.87;100423.17;106239;1279;25400;-49
2023/01/18 04:36:28;;;;;;;31.10;8.50;;;;;;;10.76;86.46;100422.48;106461;1281;26151;-49
2023/01/18 04:38:56;;;;;;;30.40;7.20;;;;;;;10.83;86.02;100428.88;106276;1286;25509;-51
2023/01/18 04:41:23;;;;;;;27.80;6.80;;;;;;;10.89;85.55;100425.24;106300;1281;25401;-51
2023/01/18 04:43:50;;;;;;;24.40;7.10;;;;;;;10.92;85.22;100426.19;106316;1279;25328;-51
2023/01/18 04:46:18;;;;;;;40.30;8.90;;;;;;;10.98;84.82;100424.98;106247;1280;25410;-51
2023/01/18 04:48:49;;;;;;;26.90;8.20;;;;;;;11.03;84.52;100426.75;106302;1280;25325;-51
2023/01/18 04:51:16;;;;;;;25.80;8.10;;;;;;;11.07;84.05;100428.19;106330;1279;25315;-51
2023/01/18 04:53:43;;;;;;;25.70;6.40;;;;;;;11.12;83.65;100430.63;106380;1279;22546;-50
2023/01/18 04:56:11;;;;;;;29.80;8.10;;;;;;;11.17;83.20;100433.61;106342;1280;25452;-50
2023/01/18 04:58:38;;;;;;;29.50;8.10;;;;;;;11.23;82.93;100433.94;106257;1279;25318;-51
2023/01/18 05:01:07;;;;;;;22.10;6.40;;;;;;;11.28;82.42;100429.64;106327;1278;25613;-50
2023/01/18 05:03:37;;;;;;;27.30;7.90;;;;;;;11.31;82.01;100433.36;106249;1279;24243;-52
2023/01/18 05:06:11;;;;;;;32.90;7.90;;;;;;;11.34;81.57;100438.46;105987;1279;22784;-50
2023/01/18 05:08:41;;;;;;;24.30;7.30;;;;;;;11.38;81.23;100442.89;106341;1279;25508;-51
2023/01/18 05:11:10;;;;;;;33.00;8.10;;;;;;;11.40;80.88;100442.98;106287;1285;24244;-51
2023/01/18 05:13:38;;;;;;;28.90;8.20;;;;;;;11.43;80.50;100442.38;106366;1279;24058;-51
2023/01/18 05:16:07;;;;;;;29.30;8.30;;;;;;;11.45;80.20;100443.19;106331;1278;25353;-51
2023/01/18 05:18:34;;;;;;;25.20;6.70;;;;;;;11.48;79.86;100443.48;106779;1275;22678;-50
2023/01/18 05:21:01;;;;;;;27.90;6.70;;;;;;;11.48;79.59;100441.52;106761;1273;25319;-50
2023/01/18 05:23:28;;;;;;;24.60;6.40;;;;;;;11.51;79.33;100443.55;106788;1272;25322;-50
2023/01/18 05:25:56;;;;;;;24.50;7.50;;;;;;;11.52;79.08;100449.23;106732;1275;25427;-50
2023/01/18 05:28:25;;;;;;;24.70;6.60;;;;;;;11.54;78.80;100452.66;106490;1276;22762;-50
2023/01/18 05:30:54;;;;;;;29.50;7.60;;;;;;;11.56;78.50;100454.19;106810;1272;25343;-50
2023/01/18 05:33:22;;;;;;;32.60;9.00;;;;;;;11.56;78.25;100452.92;106804;1257;25471;-50
2023/01/18 05:35:53;;;;;;;27.60;7.90;;;;;;;11.58;77.98;100452.02;106728;1272;25395;-51
2023/01/18 05:38:20;;;;;;;28.20;7.50;;;;;;;11.59;77.76;100453.73;106754;1273;22580;-50
2023/01/18 05:40:48;;;;;;;27.10;7.60;;;;;;;11.59;77.65;100452.67;106682;1273;26332;-50
2023/01/18 05:43:15;;;;;;;33.70;8.10;;;;;;;11.60;77.49;100454.02;106755;1273;22629;-51
2023/01/18 05:45:42;;;;;;;32.20;7.00;;;;;;;11.61;77.34;100457.64;106741;1272;25227;-50
2023/01/18 05:48:10;;;;;;;31.50;7.50;;;;;;;11.62;77.19;100463.19;106534;1272;22531;-50
2023/01/18 05:50:42;;;;;;;48.60;8.80;;;;;;;11.63;76.94;100471.83;106750;1272;24417;-51
2023/01/18 05:53:15;;;;;;;33.30;7.30;;;;;;;11.64;76.69;100474.60;106744;1273;25332;-50
2023/01/18 05:55:42;;;;;;;35.50;8.00;;;;;;;11.64;76.52;100478.77;106770;1272;22527;-51
2023/01/18 05:58:10;;;;;;;28.70;7.40;;;;;;;11.65;76.30;100480.63;106815;1273;22536;-50
2023/01/18 06:00:37;;;;;;;29.10;7.90;;;;;;;11.65;76.15;100477.85;106783;1270;25318;-50
2023/01/18 06:03:04;;;;;;;29.10;7.80;;;;;;;11.65;76.00;100479.75;106893;1270;26686;-50
2023/01/18 06:05:31;;;;;;;33.00;7.40;;;;;;;11.65;76.01;100481.17;106678;1270;25351;-53
2023/01/18 06:07:59;;;;;;;30.20;7.90;;;;;;;11.66;75.91;100486.34;106694;1270;24208;-50
2023/01/18 06:10:26;;;;;;;42.40;8.80;;;;;;;11.68;75.71;100483.54;106908;1272;23287;-51
2023/01/18 06:12:53;;;;;;;38.60;9.70;;;;;;;11.69;75.52;100481.26;106800;1272;25475;-51
2023/01/18 06:15:20;;;;;;;29.10;8.90;;;;;;;11.70;75.41;100476.18;106781;1270;25431;-50
2023/01/18 06:17:48;;;;;;;31.10;8.20;;;;;;;11.69;75.30;100479.16;106388;1278;25443;-51
2023/01/18 06:20:16;;;;;;;23.80;8.00;;;;;;;11.70;75.20;100480.67;106727;1271;25552;-51
2023/01/18 06:22:44;;;;;;;31.30;7.80;;;;;;;11.71;75.20;100485.86;106786;1270;25483;-50
2023/01/18 06:25:12;;;;;;;24.20;7.40;;;;;;;11.72;75.06;100487.39;106775;1270;22773;-50
2023/01/18 06:27:40;;;;;;;29.60;7.90;;;;;;;11.73;74.94;100488.59;106725;1272;25357;-51
2023/01/18 06:30:09;;;;;;;34.90;8.20;;;;;;;11.74;74.78;100488.57;106750;1275;22557;-51
2023/01/18 06:32:39;;;;;;;36.60;8.10;;;;;;;11.74;74.73;100493.58;106795;1272;25372;-50
2023/01/18 06:35:06;;;;;;;33.40;7.80;;;;;;;11.75;74.62;100493.73;106745;1273;25379;-50
2023/01/18 06:37:33;;;;;;;34.20;8.30;;;;;;;11.77;74.51;100492.64;106787;1272;25517;-50
2023/01/18 06:40:00;;;;;;;28.70;7.60;;;;;;;11.78;74.34;100492.77;106766;1272;24222;-50
2023/01/18 06:42:29;;;;;;;34.80;7.90;;;;;;;11.79;74.19;100501.08;107147;1267;22542;-50
2023/01/18 06:44:56;;;;;;;33.90;8.00;;;;;;;11.80;74.16;100499.67;107098;1268;25511;-50
2023/01/18 06:47:23;;;;;;;26.30;7.30;;;;;;;11.81;74.03;100505.36;105580;1268;1003815;-51
2023/01/18 06:49:50;;;;;;;38.80;9.40;;;;;;;11.83;73.97;100512.28;107066;1267;25478;-51
2023/01/18 06:52:17;;;;;;;31.20;7.70;;;;;;;11.84;73.92;100517.45;107122;1267;22734;-51
2023/01/18 06:54:44;;;;;;;31.70;8.60;;;;;;;11.85;73.87;100522.80;107140;1270;25318;-50
2023/01/18 06:57:11;;;;;;;35.90;7.60;;;;;;;11.87;73.87;100524.99;107215;1271;25475;-50
2023/01/18 06:59:39;;;;;;;27.80;8.10;;;;;;;11.89;73.80;100526.67;106233;1270;1003757;-50
2023/01/18 07:02:06;;;;;;;27.50;8.40;;;;;;;11.92;73.65;100524.67;107070;1269;22535;-50
2023/01/18 07:04:40;;;;;;;26.60;6.60;;;;;;;11.93;73.58;100522.71;107096;1269;25354;-50
2023/01/18 10:13:50;;;;;;;35.30;8.70;;;;;;;10.73;88.69;100475.67;105112;1289;558071;-58
2023/01/18 10:16:19;;;;;;;35.80;8.40;;;;;;;11.89;80.86;100478.52;105778;1284;25428;-59
2023/01/18 10:18:47;;;;;;;34.20;8.30;;;;;;;12.11;79.63;100478.67;105908;1282;25301;-57
2023/01/18 10:21:46;;;;;;;28.60;8.60;;;;;;;12.29;78.53;100483.14;106058;1282;24287;-57
2023/01/18 10:24:33;;;;;;;43.70;9.80;;;;;;;12.47;77.20;100486.88;106005;1288;25510;-57
2023/01/18 10:27:29;;;;;;;32.60;8.40;;;;;;;12.60;76.18;100487.47;106135;1283;246543;-56
2023/01/18 10:29:59;;;;;;;39.50;9.30;;;;;;;12.71;75.41;100488.14;106477;1274;25564;-56
2023/01/18 10:32:26;;;;;;;33.40;8.80;;;;;;;12.77;74.78;100481.30;105233;1279;1002919;-57
2023/01/18 10:34:54;;;;;;;35.20;8.60;;;;;;;12.83;74.26;100478.98;106332;1279;25425;-56
2023/01/18 10:37:34;;;;;;;36.20;8.10;;;;;;;12.90;73.80;100475.78;106732;1272;27169;-57
2023/01/18 10:40:04;;;;;;;37.40;9.50;;;;;;;12.96;73.39;100468.77;106683;1273;22526;-56
2023/01/18 10:42:45;;;;;;;33.50;9.10;;;;;;;13.02;72.91;100463.84;106454;1267;25366;-59
2023/01/18 10:45:18;;;;;;;32.50;8.40;;;;;;;13.07;72.36;100462.46;106674;1264;25981;-57
2023/01/18 10:47:52;;;;;;;37.90;7.90;;;;;;;13.11;71.97;100464.62;106707;1257;22635;-58
2023/01/18 10:53:52;;;;;;;35.50;8.00;;;;;;;13.17;71.24;100465.10;106707;1267;24204;-59
2023/01/18 10:56:25;;;;;;;33.60;9.20;;;;;;;13.18;71.10;100462.45;105878;1283;25362;-59
2023/01/18 10:58:59;;;;;;;33.50;8.00;;;;;;;13.20;70.80;100461.69;106032;1282;25375;-57
2023/01/18 11:01:27;;;;;;;30.20;8.00;;;;;;;13.20;70.58;100460.46;105984;1283;22543;-59
2023/01/18 11:03:56;;;;;;;36.20;8.40;;;;;;;13.18;70.51;100468.20;105168;1283;1003100;-59
2023/01/18 11:06:25;;;;;;;26.90;7.20;;;;;;;13.23;70.20;100465.03;106321;1283;22549;-58
2023/01/18 11:08:52;;;;;;;37.10;8.10;;;;;;;13.21;70.04;100468.77;105949;1286;25380;-60
2023/01/18 11:12:32;;;;;;;37.70;8.80;;;;;;;13.25;69.86;100471.95;106108;1281;25439;-56
2023/01/18 11:14:29;;;;;;;28.80;8.40;;;;;;;13.26;69.66;100473.98;105972;1288;24360;-60
2023/01/18 11:17:01;;;;;;;30.40;8.30;;;;;;;13.27;69.48;100473.79;105701;1289;25429;-58
2023/01/18 11:19:28;;;;;;;37.40;8.10;;;;;;;13.28;69.36;100472.54;106234;1282;25407;-58
2023/01/18 11:21:56;;;;;;;37.50;9.80;;;;;;;13.28;69.21;100471.81;106090;1281;23904;-62
2023/01/18 11:24:26;;;;;;;39.60;9.10;;;;;;;13.30;69.14;100466.17;105990;1273;25542;-57
2023/01/18 11:27:00;;;;;;;40.00;9.00;;;;;;;13.32;68.93;100466.29;104457;1285;1003778;-56
2023/01/18 11:29:34;;;;;;;29.50;7.80;;;;;;;13.33;68.83;100471.61;105949;1281;25358;-57
2023/01/18 11:32:05;;;;;;;43.10;9.30;;;;;;;13.34;68.70;100467.41;106406;1284;22527;-56
2023/01/18 11:34:37;;;;;;;34.50;8.60;;;;;;;13.34;68.58;100466.70;106313;1269;22539;-60
2023/01/18 11:37:17;;;;;;;32.70;8.90;;;;;;;13.35;68.53;100466.49;106447;1280;22542;-60
2023/01/18 11:39:44;;;;;;;37.20;9.30;;;;;;;13.36;68.34;100464.74;106450;1270;25570;-56
2023/01/18 11:42:21;;;;;;;35.30;8.60;;;;;;;13.35;68.27;100464.40;106620;1276;22537;-60
2023/01/18 11:44:54;;;;;;;36.30;8.40;;;;;;;13.35;68.18;100452.74;106372;1276;25341;-56
2023/01/18 11:47:53;;;;;;;26.60;7.20;;;;;;;13.34;68.16;100448.41;106630;1275;25428;-58
2023/01/18 11:50:33;;;;;;;29.60;7.30;;;;;;;13.33;68.08;100450.39;106464;1276;22618;-59
2023/01/18 11:53:19;;;;;;;29.00;8.20;;;;;;;13.31;68.01;100445.59;106799;1276;29444;-57
2023/01/18 11:56:05;;;;;;;28.00;7.70;;;;;;;13.29;68.04;100444.24;106617;1275;24310;-58
2023/01/18 11:58:34;;;;;;;28.40;8.40;;;;;;;13.30;68.05;100440.56;106448;1281;25856;-59
2023/01/18 12:01:32;;;;;;;30.50;7.60;;;;;;;13.31;67.95;100441.76;106620;1275;24320;-57
2023/01/18 12:04:09;;;;;;;31.20;7.80;;;;;;;13.33;67.81;100446.39;106301;1280;22526;-64
2023/01/18 12:06:49;;;;;;;36.70;7.70;;;;;;;13.33;67.70;100447.58;106377;1276;22812;-57
2023/01/18 12:09:29;;;;;;;27.70;7.40;;;;;;;13.33;67.67;100447.58;106261;1276;25399;-58
2023/01/18 12:12:05;;;;;;;28.40;7.80;;;;;;;13.32;67.60;100451.61;106456;1278;25435;-58
2023/01/18 12:14:54;;;;;;;35.40;8.10;;;;;;;13.31;67.49;100456.91;106468;1277;22664;-57
2023/01/18 12:17:44;;;;;;;33.10;8.00;;;;;;;13.31;67.54;100462.48;106417;1274;25411;-55
2023/01/18 12:20:28;;;;;;;28.80;7.70;;;;;;;13.30;67.68;100463.89;106438;1276;22617;-56
2023/01/18 12:23:21;;;;;;;31.30;7.50;;;;;;;13.34;67.74;100466.55;106442;1267;25370;-57
2023/01/18 12:26:36;;;;;;;35.50;7.90;;;;;;;13.39;67.58;100471.59;106378;1275;25427;-57
2023/01/18 12:29:09;;;;;;;29.90;8.00;;;;;;;13.43;67.35;100475.76;106080;1274;25361;-56
2023/01/18 12:31:59;;;;;;;27.30;7.30;;;;;;;13.46;67.12;100472.17;105878;1280;25549;-60
2023/01/18 12:34:36;;;;;;;32.50;8.20;;;;;;;13.47;66.99;100467.08;105858;1267;23888;-58
2023/01/18 12:37:41;;;;;;;35.30;7.50;;;;;;;13.47;66.82;100474.91;106105;1278;22539;-59
2023/01/18 12:40:26;;;;;;;28.10;8.00;;;;;;;13.46;66.78;100479.83;106247;1278;25380;-56
2023/01/18 12:42:59;;;;;;;32.60;7.80;;;;;;;13.45;66.82;100483.70;106219;1280;24278;-56
2023/01/18 12:45:30;;;;;;;29.00;7.30;;;;;;;13.47;66.72;100489.58;106584;1273;24014;-58
2023/01/18 12:47:57;;;;;;;;;;;;;;;13.48;66.71;100493.70;106313;1280;25328;-56
2023/01/18 12:50:30;;;;;;;33.70;8.00;;;;;;;13.49;66.62;100500.11;106017;1279;22536;-57
2023/01/18 12:53:03;;;;;;;34.10;7.10;;;;;;;13.50;66.63;100499.02;106027;1270;22547;-56
2023/01/18 12:55:31;;;;;;;38.80;9.10;;;;;;;13.51;66.61;100497.44;106125;1263;22563;-60
2023/01/18 12:57:58;;;;;;;29.50;7.40;;;;;;;13.52;66.58;100496.33;106206;1270;22567;-58
2023/01/18 13:00:37;;;;;;;39.40;8.80;;;;;;;13.54;66.54;100496.63;106593;1272;25380;-59
2023/01/18 13:03:12;;;;;;;27.80;7.20;;;;;;;13.55;66.42;100498.85;106952;1270;22556;-57
2023/01/18 13:05:51;;;;;;;34.90;9.00;;;;;;;13.55;66.34;100497.61;106407;1271;22549;-61
2023/01/18 13:08:52;;;;;;;32.80;8.20;;;;;;;13.56;66.33;100503.00;106333;1273;25366;-56
2023/01/18 13:11:30;;;;;;;33.20;7.30;;;;;;;13.55;66.23;100504.09;106093;1279;22581;-57
2023/01/18 13:14:18;;;;;;;22.90;6.80;;;;;;;13.54;66.14;100502.38;105996;1282;25553;-56
2023/01/18 13:16:50;;;;;;;27.30;7.60;;;;;;;13.52;66.14;100504.33;106108;1284;25295;-60
2023/01/18 13:19:21;;;;;;;28.50;7.80;;;;;;;13.50;66.08;100514.37;106432;1277;22533;-56
2023/01/18 13:22:38;;;;;;;30.90;7.20;;;;;;;13.48;66.08;100525.41;106367;1280;22607;-57
2023/01/18 13:25:27;;;;;;;29.90;7.10;;;;;;;13.46;66.09;100533.35;105999;1288;25500;-58
2023/01/18 13:27:57;;;;;;;30.00;7.90;;;;;;;13.44;66.24;100538.30;105861;1281;25417;-61
2023/01/18 13:30:26;;;;;;;31.60;9.10;;;;;;;13.41;66.18;100541.70;105753;1273;25344;-62
2023/01/18 13:32:53;;;;;;;34.20;7.90;;;;;;;13.40;66.21;100544.56;106203;1274;25974;-57
2023/01/18 13:35:27;;;;;;;27.90;8.10;;;;;;;13.37;66.24;100543.60;105812;1283;25461;-57
2023/01/18 13:37:54;;;;;;;32.00;7.90;;;;;;;13.37;66.23;100544.13;105992;1282;25516;-60
2023/01/18 13:40:36;;;;;;;33.90;8.60;;;;;;;13.36;66.21;100547.13;105858;1282;25380;-57
2023/01/18 13:43:05;;;;;;;24.50;8.20;;;;;;;13.34;66.20;100548.27;105878;1281;25566;-57
2023/01/18 13:45:32;;;;;;;33.00;8.70;;;;;;;13.32;66.20;100552.86;105846;1287;24458;-65
2023/01/18 13:48:07;;;;;;;28.50;7.80;;;;;;;13.30;66.15;100546.14;105901;1278;25513;-57
2023/01/18 13:50:38;;;;;;;31.30;7.70;;;;;;;13.26;66.29;100546.12;106077;1278;25502;-57
2023/01/18 13:53:14;;;;;;;30.00;8.20;;;;;;;13.23;66.40;100553.88;106252;1278;24212;-57
2023/01/18 13:56:02;;;;;;;39.10;8.90;;;;;;;13.23;66.37;100558.06;106246;1277;25862;-60
2023/01/18 13:58:33;;;;;;;42.30;7.80;;;;;;;13.23;66.33;100561.02;106062;1276;25334;-57
2023/01/18 14:01:02;;;;;;;35.40;10.00;;;;;;;13.22;66.35;100559.67;106189;1276;25370;-59
2023/01/18 14:03:32;;;;;;;37.30;8.40;;;;;;;13.20;66.35;100558.52;106012;1284;24680;-58
2023/01/18 14:06:07;;;;;;;29.40;7.80;;;;;;;13.19;66.43;100559.96;106329;1281;22578;-57
2023/01/18 14:08:36;;;;;;;38.80;9.60;;;;;;;13.16;66.39;100555.69;106113;1277;22536;-56
2023/01/18 14:11:13;;;;;;;36.50;9.60;;;;;;;13.13;66.51;100560.86;106290;1276;25462;-59
2023/01/18 14:13:47;;;;;;;32.70;8.80;;;;;;;13.10;66.66;100562.69;106276;1277;25410;-56
2023/01/18 14:16:22;;;;;;;37.00;9.40;;;;;;;13.12;66.51;100566.66;106169;1284;25346;-57
2023/01/18 14:18:57;;;;;;;31.60;7.90;;;;;;;13.10;66.66;100568.44;106218;1276;25482;-58
2023/01/18 14:21:53;;;;;;;33.70;8.30;;;;;;;13.07;66.74;100575.85;106191;1281;25477;-57
2023/01/18 14:24:32;;;;;;;44.40;9.20;;;;;;;13.03;66.88;100575.79;106103;1276;26520;-65
2023/01/18 14:26:59;;;;;;;34.70;8.20;;;;;;;12.97;66.98;100581.76;106281;1277;25359;-64
2023/01/18 14:29:39;;;;;;;37.20;8.20;;;;;;;12.97;66.91;100581.91;104898;1277;1003604;-60
2023/01/18 14:32:07;;;;;;;32.60;9.30;;;;;;;12.95;66.96;100585.98;106324;1277;24267;-60
2023/01/18 14:34:36;;;;;;;34.20;8.70;;;;;;;12.91;67.15;100592.73;106027;1282;22598;-60
2023/01/18 14:37:24;;;;;;;36.60;9.30;;;;;;;12.92;67.20;100595.14;106727;1272;26187;-66
2023/01/18 14:40:21;;;;;;;43.10;9.20;;;;;;;12.91;67.14;100598.48;106593;1277;22666;-61
2023/01/18 14:42:57;;;;;;;33.40;9.00;;;;;;;12.89;67.19;100603.44;106713;1270;26612;-57
2023/01/18 14:45:27;;;;;;;27.90;7.00;;;;;;;12.86;67.29;100606.31;106335;1264;25065;-59
2023/01/18 14:48:00;;;;;;;30.20;8.20;;;;;;;12.84;67.37;100610.20;106338;1270;22529;-59
2023/01/18 14:50:31;;;;;;;38.40;9.60;;;;;;;12.82;67.46;100611.34;106679;1270;24216;-61
2023/01/18 14:52:58;;;;;;;37.80;9.60;;;;;;;12.80;67.56;100615.05;106837;1272;22549;-60
2023/01/18 14:55:32;;;;;;;39.30;9.50;;;;;;;12.80;67.57;100617.67;106785;1256;22604;-58
2023/01/18 14:58:01;;;;;;;40.00;9.30;;;;;;;12.75;67.64;100618.17;106784;1270;25505;-59
2023/01/18 15:00:29;;;;;;;39.40;9.30;;;;;;;12.76;67.56;100618.31;106755;1272;25358;-62
2023/01/18 15:02:59;;;;;;;32.20;8.90;;;;;;;12.74;67.60;100620.84;106670;1271;25574;-57
2023/01/18 15:05:28;;;;;;;41.20;9.40;;;;;;;12.71;67.69;100619.34;106783;1256;22658;-57
2023/01/18 15:07:55;;;;;;;37.00;8.30;;;;;;;12.70;67.77;100617.84;106789;1270;22631;-58
2023/01/18 15:10:23;;;;;;;32.90;9.70;;;;;;;12.68;67.83;100623.99;106646;1269;25494;-62
2023/01/18 15:12:53;;;;;;;32.70;9.40;;;;;;;12.66;67.83;100621.60;106747;1270;25344;-59
2023/01/18 15:15:20;;;;;;;51.80;11.90;;;;;;;12.64;67.85;100618.55;106808;1271;25344;-58
2023/01/18 15:17:48;;;;;;;37.10;9.10;;;;;;;12.62;67.99;100620.88;106780;1270;25438;-55
2023/01/18 15:20:15;;;;;;;39.30;10.00;;;;;;;12.60;67.96;100617.28;106710;1257;25408;-58
2023/01/18 15:22:42;;;;;;;40.60;8.90;;;;;;;12.58;68.02;100616.14;106495;1269;22648;-58
2023/01/18 15:25:29;;;;;;;36.80;10.10;;;;;;;12.54;68.15;100619.56;106737;1273;25339;-58
2023/01/18 15:27:58;;;;;;;40.40;9.30;;;;;;;12.52;68.19;100627.99;106903;1269;25465;-57
2023/01/18 15:30:25;;;;;;;44.80;11.50;;;;;;;12.51;68.15;100631.84;106225;1277;25297;-58
2023/01/18 15:32:56;;;;;;;38.40;9.60;;;;;;;12.51;68.06;100630.61;106757;1270;24341;-64
2023/01/18 15:35:24;;;;;;;29.50;7.70;;;;;;;12.49;68.12;100632.09;106439;1270;25357;-58
2023/01/18 15:37:51;;;;;;;36.90;10.40;;;;;;;12.47;68.17;100636.99;106291;1272;22534;-59
2023/01/18 15:40:18;;;;;;;39.80;9.20;;;;;;;12.46;68.17;100639.13;106190;1272;25673;-60
2023/01/18 15:43:01;;;;;;;30.10;8.40;;;;;;;12.45;68.19;100640.38;106483;1273;24361;-58
2023/01/18 15:45:33;;;;;;;35.30;8.80;;;;;;;12.45;68.18;100650.14;105627;1280;1002990;-57
2023/01/18 15:48:08;;;;;;;41.50;9.00;;;;;;;12.43;68.20;100649.49;106413;1272;25489;-58
2023/01/18 15:50:42;;;;;;;30.00;8.90;;;;;;;12.42;68.29;100649.36;106690;1273;22534;-57
2023/01/18 15:53:29;;;;;;;31.20;9.10;;;;;;;12.40;68.42;100652.71;106670;1272;24391;-60
2023/01/18 15:56:02;;;;;;;37.10;8.50;;;;;;;12.39;68.57;100653.79;106781;1273;22585;-66
2023/01/18 15:58:43;;;;;;;36.80;9.50;;;;;;;12.37;68.73;100657.67;106357;1273;22543;-59
2023/01/18 16:01:10;;;;;;;40.50;8.30;;;;;;;12.38;68.83;100660.27;106377;1273;25421;-61
2023/01/18 20:00:02;;;;;;;48.20;10.70;;;;;;;9.20;96.14;100887.92;104867;1295;561055;-59
2023/01/18 20:02:39;;;;;;;49.50;11.00;;;;;;;10.35;86.72;100890.02;106280;1283;25422;-59
2023/01/18 20:05:07;;;;;;;61.00;12.00;;;;;;;10.52;85.07;100888.13;106350;1285;25419;-59
2023/01/18 20:07:37;;;;;;;48.80;10.70;;;;;;;10.63;84.31;100892.95;106378;1282;25465;-59
2023/01/18 20:10:06;;;;;;;;;;;;;;;10.71;83.76;100896.77;106249;1287;25357;-59
2023/01/18 20:12:33;;;;;;;53.00;11.30;;;;;;;10.80;83.30;100907.52;106145;1283;196169;-59
2023/01/18 20:15:00;;;;;;;50.90;10.90;;;;;;;10.86;82.95;100911.38;106337;1280;25356;-59
2023/01/18 20:17:28;;;;;;;50.50;11.10;;;;;;;10.94;82.36;100918.52;106328;1282;25532;-59
2023/01/18 20:19:55;;;;;;;42.40;10.20;;;;;;;10.94;82.11;100919.55;106292;1278;25504;-59
2023/01/18 20:22:23;;;;;;;39.90;8.80;;;;;;;11.03;81.45;100920.05;106371;1279;25564;-59
2023/01/18 20:24:50;;;;;;;46.50;9.80;;;;;;;11.09;80.98;100918.88;106381;1280;25249;-59
2023/01/18 20:27:17;;;;;;;43.70;9.80;;;;;;;11.15;80.71;100922.41;106180;1282;24203;-59
2023/01/18 20:29:45;;;;;;;46.40;10.90;;;;;;;11.21;80.31;100927.13;106264;1280;25350;-59
2023/01/18 20:32:12;;;;;;;38.60;8.40;;;;;;;11.18;80.18;100928.23;106017;1283;25417;-59
2023/01/18 20:34:45;;;;;;;42.70;9.60;;;;;;;11.06;80.62;100927.47;106413;1279;25354;-59
2023/01/18 20:37:12;;;;;;;41.80;10.00;;;;;;;11.28;79.60;100924.02;106313;1279;25412;-59
2023/01/18 20:39:39;;;;;;;45.60;10.30;;;;;;;11.37;79.09;100926.77;106291;1280;25360;-60
2023/01/18 20:42:07;;;;;;;42.00;9.20;;;;;;;11.44;78.64;100925.40;106117;1285;24462;-59
2023/01/18 20:44:34;;;;;;;41.30;9.20;;;;;;;11.49;78.33;100925.11;106375;1279;25471;-59
2023/01/18 20:47:02;;;;;;;42.00;10.00;;;;;;;11.55;78.07;100929.69;106282;1279;25521;-59
2023/01/18 20:49:29;;;;;;;44.30;11.30;;;;;;;11.59;77.80;100939.31;106247;1282;22620;-59
2023/01/18 20:52:05;;;;;;;47.50;10.60;;;;;;;11.65;77.49;100950.85;106161;1282;24437;-59
2023/01/18 20:54:34;;;;;;;43.80;10.70;;;;;;;11.67;77.13;100951.66;106042;1282;25332;-59
2023/01/18 20:57:05;;;;;;;33.30;9.40;;;;;;;11.67;76.97;100950.79;106015;1285;25409;-59
2023/01/18 20:59:33;;;;;;;37.90;9.60;;;;;;;11.64;77.10;100948.23;106436;1278;25375;-59
2023/01/18 21:02:01;;;;;;;45.40;11.60;;;;;;;11.74;76.73;100952.19;106380;1279;25359;-59
2023/01/18 21:04:29;;;;;;;53.60;13.30;;;;;;;11.78;76.56;100954.55;106347;1280;24234;-59
2023/01/18 21:06:56;;;;;;;51.50;10.20;;;;;;;11.80;76.24;100953.63;106678;1270;22532;-59
2023/01/18 21:09:24;;;;;;;43.10;8.20;;;;;;;11.81;76.06;100958.46;106667;1276;22589;-59
2023/01/18 21:11:51;;;;;;;42.00;8.40;;;;;;;11.83;75.90;100960.16;106753;1271;22916;-59
2023/01/18 21:14:19;;;;;;;35.30;8.80;;;;;;;11.84;75.59;100961.02;106702;1273;25543;-59
2023/01/18 21:16:46;;;;;;;41.00;9.70;;;;;;;11.85;75.40;100960.14;106728;1272;25365;-59
2023/01/18 21:19:13;;;;;;;50.70;10.10;;;;;;;11.84;75.28;100963.43;106756;1273;25344;-59
2023/01/18 21:21:40;;;;;;;40.60;8.80;;;;;;;11.85;75.02;100964.45;106679;1276;25344;-59
2023/01/18 21:24:08;;;;;;;33.50;9.90;;;;;;;11.86;74.79;100966.52;106778;1273;25485;-59
2023/01/18 21:26:36;;;;;;;38.60;8.40;;;;;;;11.87;74.62;100961.82;106816;1276;25366;-59
2023/01/18 21:29:04;;;;;;;43.10;8.90;;;;;;;11.87;74.52;100963.38;106848;1276;25400;-59
2023/01/18 21:31:31;;;;;;;32.30;9.70;;;;;;;11.87;74.35;100968.76;106902;1273;25446;-59
2023/01/18 21:33:58;;;;;;;33.90;8.50;;;;;;;11.86;74.24;100972.77;106727;1273;25489;-59
2023/01/18 21:36:25;;;;;;;43.50;9.60;;;;;;;11.85;74.19;100975.94;106762;1274;25401;-59
2023/01/18 21:38:53;;;;;;;43.40;9.70;;;;;;;11.85;74.06;100976.63;106550;1269;25543;-59
2023/01/18 21:46:52;;;;;;;43.10;10.30;;;;;;;11.82;73.92;100990.42;106770;1273;25449;-59
2023/01/18 21:55:14;;;;;;;39.40;9.10;;;;;;;11.82;73.79;100990.43;107168;1266;25356;-59
2023/01/18 21:57:42;;;;;;;36.50;7.80;;;;;;;11.83;73.72;100997.37;107103;1266;24199;-59
2023/01/18 22:00:12;;;;;;;34.90;8.20;;;;;;;11.82;73.68;100998.77;107158;1266;25318;-59
2023/01/18 22:02:39;;;;;;;32.90;8.20;;;;;;;11.83;73.60;100999.96;107043;1273;25478;-59
2023/01/18 22:05:08;;;;;;;42.40;10.20;;;;;;;11.83;73.58;100996.16;107075;1271;25465;-59
2023/01/18 22:07:36;;;;;;;42.40;9.40;;;;;;;11.84;73.60;100994.74;107150;1270;22601;-59
2023/01/18 22:10:04;;;;;;;39.90;8.20;;;;;;;11.84;73.55;100995.42;107202;1267;25341;-59
2023/01/18 22:12:33;;;;;;;45.60;10.10;;;;;;;11.83;73.51;100990.58;107083;1271;25356;-59
2023/01/18 22:15:02;;;;;;;39.50;10.40;;;;;;;11.83;73.61;100992.85;107136;1266;22557;-59
2023/01/18 22:17:29;;;;;;;37.00;8.30;;;;;;;11.83;73.64;100993.02;107195;1267;22677;-59
2023/01/18 22:19:56;;;;;;;46.00;8.90;;;;;;;11.83;73.69;100995.61;107005;1267;25391;-60
2023/01/18 22:22:23;;;;;;;47.30;11.30;;;;;;;11.83;73.75;100998.73;107088;1267;22665;-59
2023/01/18 22:24:51;;;;;;;40.40;10.00;;;;;;;11.64;74.56;101002.64;106841;1271;25341;-59
2023/01/18 22:27:18;;;;;;;38.20;9.50;;;;;;;11.58;74.89;100995.98;107049;1267;25356;-60
2023/01/18 22:29:45;;;;;;;44.40;9.40;;;;;;;11.56;75.08;100992.55;107028;1270;22531;-59
2023/01/18 22:32:12;;;;;;;53.70;10.00;;;;;;;11.56;75.19;100991.16;107180;1266;25368;-59
2023/01/18 22:34:39;;;;;;;56.50;11.10;;;;;;;11.56;75.34;100988.73;107093;1267;25476;-59
2023/01/18 22:37:06;;;;;;;50.00;11.40;;;;;;;11.57;75.40;100987.16;107107;1266;24688;-59
2023/01/18 22:39:33;;;;;;;38.90;9.30;;;;;;;11.58;75.44;100978.43;107040;1270;25370;-59
2023/01/18 22:42:00;;;;;;;39.90;10.20;;;;;;;11.64;75.30;100982.98;107136;1270;25796;-59
2023/01/18 22:44:27;;;;;;;50.30;9.80;;;;;;;11.84;74.46;100985.17;107075;1267;25562;-59
2023/01/18 22:46:55;;;;;;;45.10;9.20;;;;;;;11.90;73.99;100980.48;107186;1271;26711;-59
2023/01/18 22:49:22;;;;;;;44.30;9.50;;;;;;;11.92;73.96;100972.98;106913;1267;22640;-59
2023/01/18 22:51:50;;;;;;;35.70;9.50;;;;;;;11.93;73.87;100977.46;107126;1267;25490;-59
2023/01/18 22:54:21;;;;;;;43.90;8.90;;;;;;;11.92;73.98;100978.38;107058;1267;25331;-59
2023/01/18 22:56:48;;;;;;;39.90;10.10;;;;;;;11.85;74.30;100980.11;107067;1274;22523;-59
2023/01/18 22:59:15;;;;;;;44.90;9.40;;;;;;;11.92;74.10;100985.33;107071;1270;25331;-58
2023/01/18 23:01:42;;;;;;;47.90;10.40;;;;;;;11.96;73.98;100984.72;107171;1270;25414;-59
2023/01/18 23:04:10;;;;;;;36.70;9.00;;;;;;;11.97;73.94;100987.11;107071;1270;25391;-59